createdAt,value
2022-10-05T00:00:36.253Z,0.40
2022-10-05T00:03:27.264Z,1.50
2022-10-05T00:06:11.967Z,0.47
2022-10-05T00:08:55.451Z,1.13
2022-10-05T00:11:42.131Z,0.50
2022-10-05T00:17:50.365Z,1.55
2022-10-05T00:23:24.144Z,0.43
2022-10-05T00:26:13.215Z,1.80
2022-10-05T00:28:56.569Z,1.52
2022-10-05T00:31:52.682Z,1.15
2022-10-05T00:34:32.287Z,0.45
2022-10-05T00:37:35.880Z,0.55
2022-10-05T00:40:38.920Z,1.77
2022-10-05T00:43:39.580Z,2.50
2022-10-05T00:46:27.350Z,1.98
2022-10-05T00:49:23.627Z,1.52
2022-10-05T00:52:11.293Z,2.88
2022-10-05T00:55:06.256Z,2.55
2022-10-05T00:58:12.991Z,2.88
2022-10-05T01:01:20.456Z,1.20
2022-10-05T01:04:01.878Z,1.30
2022-10-05T01:06:49.045Z,0.88
2022-10-05T01:09:45.338Z,4.47
2022-10-05T01:12:48.667Z,2.30
2022-10-05T01:15:46.992Z,1.38
2022-10-05T01:18:35.488Z,0.73
2022-10-05T01:21:29.300Z,2.30
2022-10-05T01:24:49.961Z,2.20
2022-10-05T01:28:07.579Z,0.52
2022-10-05T01:30:50.451Z,1.00
2022-10-05T01:33:38.233Z,1.77
2022-10-05T01:36:40.260Z,0.52
2022-10-05T01:39:23.330Z,3.03
2022-10-05T01:42:11.004Z,2.15
2022-10-05T01:45:06.187Z,1.50
2022-10-05T01:51:12.513Z,2.10
2022-10-05T01:54:09.954Z,1.13
2022-10-05T02:00:23.267Z,3.25
2022-10-05T02:03:34.318Z,1.15
2022-10-05T02:06:17.620Z,0.50
2022-10-05T02:09:01.419Z,1.33
2022-10-05T02:11:43.123Z,0.50
2022-10-05T02:14:32.363Z,1.27
2022-10-05T02:20:24.273Z,1.60
2022-10-05T02:23:07.344Z,1.20
2022-10-05T02:29:13.033Z,0.40
2022-10-05T02:34:51.226Z,1.95
2022-10-05T02:38:17.655Z,0.98
2022-10-05T02:41:11.166Z,0.70
2022-10-05T02:44:12.365Z,1.13
2022-10-05T02:47:11.113Z,2.50
2022-10-05T02:50:00.810Z,3.47
2022-10-05T02:53:00.764Z,0.73
2022-10-05T02:55:56.751Z,7.45
2022-10-05T02:59:22.581Z,0.98
2022-10-05T03:02:21.865Z,2.15
2022-10-05T03:05:05.006Z,2.55
2022-10-05T03:08:00.920Z,1.02
2022-10-05T03:16:58.609Z,2.90
2022-10-05T03:20:04.718Z,0.55
2022-10-05T03:22:57.263Z,2.38
2022-10-05T03:25:57.007Z,0.80
2022-10-05T03:31:37.432Z,2.20
2022-10-05T03:34:27.440Z,1.35
2022-10-05T03:37:15.614Z,2.67
2022-10-05T03:40:28.011Z,0.77
2022-10-05T03:43:41.894Z,5.15
2022-10-05T03:46:39.038Z,1.92
2022-10-05T03:49:39.019Z,3.38
2022-10-05T03:55:03.791Z,0.50
2022-10-05T03:57:48.406Z,1.25
2022-10-05T04:00:32.826Z,4.15
2022-10-05T04:03:37.030Z,3.03
2022-10-05T04:06:20.277Z,3.85
2022-10-05T04:09:27.474Z,1.42
2022-10-05T04:12:23.037Z,2.80
2022-10-05T04:15:07.085Z,2.80
2022-10-05T04:18:10.377Z,3.33
2022-10-05T04:21:03.202Z,1.10
2022-10-05T04:24:09.722Z,3.70
2022-10-05T04:27:00.498Z,2.70
2022-10-05T04:29:44.603Z,4.13
2022-10-05T04:32:45.226Z,8.63
2022-10-05T04:36:13.302Z,9.48
2022-10-05T04:39:14.496Z,6.00
2022-10-05T04:42:08.852Z,2.50
2022-10-05T04:45:26.835Z,3.55
2022-10-05T04:48:43.870Z,0.55
2022-10-05T04:51:41.247Z,1.73
2022-10-05T04:54:53.435Z,2.33
2022-10-05T04:57:42.335Z,1.55
2022-10-05T05:01:08.048Z,0.50
2022-10-05T05:04:42.452Z,1.48
2022-10-05T05:11:20.089Z,3.10
2022-10-05T05:15:06.469Z,1.33
2022-10-05T05:21:48.960Z,3.72
2022-10-05T05:27:54.822Z,2.78
2022-10-05T05:30:52.939Z,20.13
2022-10-05T05:33:56.952Z,4.53
2022-10-05T05:37:04.166Z,7.85
2022-10-05T05:39:43.851Z,4.55
2022-10-05T05:45:27.820Z,1.20
2022-10-05T05:51:45.966Z,1.48
2022-10-05T05:54:41.747Z,2.25
2022-10-05T05:57:28.349Z,1.77
2022-10-05T06:00:13.732Z,3.22
2022-10-05T06:03:18.631Z,3.38
2022-10-05T06:06:02.360Z,2.95
2022-10-05T06:08:49.756Z,1.02
2022-10-05T06:11:35.975Z,2.95
2022-10-05T06:14:21.898Z,8.32
2022-10-05T06:17:07.228Z,15.05
2022-10-05T06:19:59.925Z,6.30
2022-10-05T06:22:57.350Z,1.23
2022-10-05T06:25:57.050Z,4.20
2022-10-05T06:31:45.238Z,6.18
2022-10-05T06:34:49.788Z,1.50
2022-10-05T06:37:56.401Z,1.15
2022-10-05T06:41:15.569Z,4.55
2022-10-05T06:44:18.344Z,3.53
2022-10-05T06:47:24.333Z,3.47
2022-10-05T06:50:08.537Z,3.85
2022-10-05T06:53:05.496Z,5.50
2022-10-05T06:56:09.316Z,1.48
2022-10-05T06:58:58.097Z,3.35
2022-10-05T07:01:47.832Z,0.57
2022-10-05T07:04:51.390Z,4.57
2022-10-05T07:07:38.565Z,3.60
2022-10-05T07:10:44.754Z,1.40
2022-10-05T07:17:56.663Z,2.58
2022-10-05T07:20:45.635Z,2.90
2022-10-05T07:23:55.684Z,13.80
2022-10-05T07:26:55.562Z,7.95
2022-10-05T07:29:55.909Z,8.35
2022-10-05T07:38:59.465Z,32.90
2022-10-05T07:42:22.280Z,161.20
2022-10-05T07:45:05.459Z,302.48
2022-10-05T07:47:58.912Z,191.38
2022-10-05T07:51:13.552Z,194.60
2022-10-05T07:54:08.401Z,164.45
2022-10-05T07:57:01.901Z,67.57
2022-10-05T08:02:47.552Z,12.57
2022-10-05T08:05:44.127Z,4.65
2022-10-05T08:08:46.043Z,14.15
2022-10-05T08:11:31.763Z,7.70
2022-10-05T08:14:16.668Z,10.48
2022-10-05T08:16:57.327Z,19.05
2022-10-05T08:19:46.568Z,14.25
2022-10-05T08:22:32.945Z,5.07
2022-10-05T08:29:25.859Z,29.15
2022-10-05T08:32:11.849Z,13.57
2022-10-05T08:34:57.769Z,8.55
2022-10-05T08:37:44.530Z,8.18
2022-10-05T08:40:57.753Z,19.50
2022-10-05T08:44:01.495Z,14.20
2022-10-05T08:47:19.390Z,8.57
2022-10-05T08:50:41.348Z,3.72
2022-10-05T08:53:50.072Z,2.60
2022-10-05T08:56:53.549Z,9.23
2022-10-05T08:59:57.831Z,5.13
2022-10-05T09:02:51.824Z,3.85
2022-10-05T09:06:14.309Z,5.78
2022-10-05T09:09:41.590Z,6.00
2022-10-05T09:13:00.389Z,104.95
2022-10-05T09:16:21.333Z,60.08
2022-10-05T09:19:30.915Z,8.55
2022-10-05T09:22:22.914Z,11.10
2022-10-05T09:25:18.903Z,9.13
2022-10-05T09:28:14.438Z,8.10
2022-10-05T09:31:09.645Z,4.80
2022-10-05T09:34:27.547Z,14.30
2022-10-05T09:37:46.837Z,27.65
2022-10-05T09:40:59.288Z,13.10
2022-10-05T09:44:28.549Z,7.00
2022-10-05T09:47:41.225Z,4.93
2022-10-05T09:55:19.575Z,7.75
2022-10-05T09:58:35.933Z,6.65
2022-10-05T10:01:39.074Z,5.00
2022-10-05T10:04:49.727Z,6.28
2022-10-05T10:08:02.190Z,6.47
2022-10-05T10:11:05.800Z,7.45
2022-10-05T10:14:19.526Z,4.70
2022-10-05T10:17:19.877Z,4.25
2022-10-05T10:20:38.597Z,3.70
2022-10-05T10:27:29.578Z,4.93
2022-10-05T10:31:11.171Z,2.83
2022-10-05T10:34:54.499Z,8.50
2022-10-05T10:38:06.784Z,4.93
2022-10-05T10:41:15.430Z,8.75
2022-10-05T10:44:29.672Z,6.07
2022-10-05T10:53:21.439Z,3.75
2022-10-05T10:56:30.600Z,5.50
2022-10-05T10:59:52.063Z,4.85
2022-10-05T11:03:11.142Z,4.68
2022-10-05T11:06:17.183Z,4.18
2022-10-05T11:09:19.480Z,9.98
2022-10-05T11:15:56.308Z,14.93
2022-10-05T11:19:01.786Z,8.80
2022-10-05T11:22:02.525Z,13.65
2022-10-05T11:25:25.571Z,18.67
2022-10-05T11:28:45.003Z,35.10
2022-10-05T11:31:57.012Z,27.85
2022-10-05T11:35:18.969Z,54.70
2022-10-05T11:38:21.265Z,17.58
2022-10-05T11:41:43.246Z,9.40
2022-10-05T11:44:55.952Z,6.05
2022-10-05T11:48:14.053Z,6.63
2022-10-05T11:51:13.653Z,12.00
2022-10-05T11:54:05.144Z,10.38
2022-10-05T11:56:44.665Z,5.38
2022-10-05T11:59:53.431Z,14.15
2022-10-05T12:03:17.858Z,51.58
2022-10-05T12:06:11.505Z,46.10
2022-10-05T12:09:04.805Z,20.95
2022-10-05T12:12:23.089Z,12.32
2022-10-05T12:15:14.569Z,15.23
2022-10-05T12:18:06.186Z,12.38
2022-10-05T12:20:55.957Z,13.68
2022-10-05T12:24:00.294Z,15.60
2022-10-05T12:27:06.731Z,22.35
2022-10-05T12:30:09.959Z,15.13
2022-10-05T12:33:11.526Z,19.55
2022-10-05T12:36:07.177Z,19.27
2022-10-05T12:39:04.032Z,14.93
2022-10-05T12:41:57.809Z,21.05
2022-10-05T12:44:56.952Z,38.20
2022-10-05T12:47:54.422Z,32.70
2022-10-05T12:51:21.835Z,29.08
2022-10-05T12:54:17.006Z,25.98
2022-10-05T12:57:12.730Z,19.15
2022-10-05T13:00:00.197Z,17.15
2022-10-05T13:09:25.129Z,11.07
2022-10-05T13:12:16.010Z,9.93
2022-10-05T13:15:16.501Z,11.03
2022-10-05T13:18:10.352Z,14.27
2022-10-05T13:21:01.921Z,15.65
2022-10-05T13:24:10.225Z,11.70
2022-10-05T13:26:55.849Z,15.85
2022-10-05T13:29:51.057Z,12.35
2022-10-05T13:32:43.467Z,13.30
2022-10-05T13:35:49.081Z,14.98
2022-10-05T13:38:37.072Z,8.27
2022-10-05T13:41:28.204Z,5.85
2022-10-05T13:44:46.762Z,7.88
2022-10-05T13:48:57.820Z,5.63
2022-10-05T13:51:10.328Z,5.88
2022-10-05T13:54:03.477Z,6.50
2022-10-05T13:56:59.239Z,8.23
2022-10-05T14:00:15.136Z,9.20
2022-10-05T14:03:18.322Z,5.30
2022-10-05T14:06:10.166Z,6.20
2022-10-05T14:11:55.296Z,5.28
2022-10-05T14:14:47.432Z,3.25
2022-10-05T14:17:46.686Z,4.35
2022-10-05T14:20:37.556Z,4.97
2022-10-05T14:23:32.832Z,1.95
2022-10-05T14:26:27.957Z,3.08
2022-10-05T14:29:24.236Z,3.65
2022-10-05T14:32:31.775Z,2.30
2022-10-05T14:35:37.858Z,5.85
2022-10-05T14:38:28.725Z,6.20
2022-10-05T14:41:22.409Z,2.58
2022-10-05T14:44:10.846Z,4.60
2022-10-05T14:47:00.292Z,3.35
2022-10-05T14:49:48.101Z,7.25
2022-10-05T14:53:03.371Z,6.30
2022-10-05T14:56:13.618Z,6.93
2022-10-05T15:02:50.023Z,3.80
2022-10-05T15:05:31.409Z,5.18
2022-10-05T15:08:21.498Z,5.70
2022-10-05T15:11:12.800Z,2.15
2022-10-05T15:14:00.229Z,5.35
2022-10-05T15:16:45.972Z,3.80
2022-10-05T15:19:36.921Z,1.90
2022-10-05T15:22:33.990Z,2.63
2022-10-05T15:25:36.561Z,5.30
2022-10-05T15:28:39.048Z,4.88
2022-10-05T15:31:40.405Z,4.38
2022-10-05T15:34:36.872Z,6.90
2022-10-05T15:37:21.711Z,2.17
2022-10-05T15:40:07.493Z,5.65
2022-10-05T15:42:54.109Z,6.43
2022-10-05T15:45:53.061Z,4.32
2022-10-05T15:51:37.409Z,5.90
2022-10-05T16:00:24.852Z,5.00
2022-10-05T16:03:28.165Z,3.63
2022-10-05T16:06:29.951Z,6.57
2022-10-05T16:09:18.383Z,7.18
2022-10-05T16:12:04.500Z,5.97
2022-10-05T16:15:07.586Z,6.60
2022-10-05T16:18:12.959Z,5.03
2022-10-05T16:21:09.663Z,4.22
2022-10-05T16:24:32.038Z,4.20
2022-10-05T16:27:18.913Z,5.85
2022-10-05T16:30:19.557Z,4.38
2022-10-05T16:33:16.440Z,4.90
2022-10-05T16:36:05.440Z,10.15
2022-10-05T16:38:50.876Z,8.68
2022-10-05T16:41:41.959Z,8.23
2022-10-05T16:44:32.795Z,4.65
2022-10-05T16:47:37.599Z,6.15
2022-10-05T16:50:48.201Z,12.98
2022-10-05T16:53:31.824Z,9.73
2022-10-05T16:56:16.079Z,10.05
2022-10-05T16:59:05.812Z,5.78
2022-10-05T17:01:59.086Z,7.18
2022-10-05T17:04:51.957Z,7.00
2022-10-05T17:07:59.161Z,5.75
2022-10-05T17:11:01.966Z,3.95
2022-10-05T17:14:10.931Z,6.07
2022-10-05T17:17:03.332Z,3.45
2022-10-05T17:19:58.798Z,4.13
2022-10-05T17:22:53.643Z,5.03
2022-10-05T17:25:47.165Z,7.93
2022-10-05T17:28:51.782Z,4.07
2022-10-05T17:31:29.594Z,3.30
2022-10-05T17:34:36.025Z,5.00
2022-10-05T17:37:45.558Z,6.85
2022-10-05T17:40:54.244Z,7.45
2022-10-05T17:43:40.032Z,5.68
2022-10-05T17:46:31.168Z,5.90
2022-10-05T17:49:25.405Z,6.53
2022-10-05T17:52:28.313Z,4.72
2022-10-05T17:55:44.938Z,6.32
2022-10-05T18:02:36.590Z,2.33
2022-10-05T18:05:31.422Z,2.90
2022-10-05T18:08:38.696Z,2.20
2022-10-05T18:11:49.775Z,7.65
2022-10-05T18:14:34.560Z,4.05
2022-10-05T18:17:42.031Z,4.45
2022-10-05T18:20:55.213Z,4.03
2022-10-05T18:23:47.379Z,4.85
2022-10-05T18:26:53.573Z,6.65
2022-10-05T18:30:04.601Z,4.03
2022-10-05T18:33:29.186Z,5.07
2022-10-05T18:36:26.807Z,6.80
2022-10-05T18:39:21.334Z,2.78
2022-10-05T18:42:20.175Z,1.33
2022-10-05T18:45:02.884Z,3.70
2022-10-05T18:48:05.447Z,1.70
2022-10-05T18:51:10.530Z,2.90
2022-10-05T18:54:13.610Z,2.20
2022-10-05T18:57:11.201Z,2.80
2022-10-05T19:00:01.288Z,4.13
2022-10-05T19:02:43.909Z,6.85
2022-10-05T19:05:47.541Z,3.15
2022-10-05T19:08:42.322Z,3.90
2022-10-05T19:11:29.216Z,4.60
2022-10-05T19:14:31.222Z,3.38
2022-10-05T19:17:34.292Z,2.38
2022-10-05T19:20:44.879Z,3.90
2022-10-05T19:24:07.055Z,2.88
2022-10-05T19:27:00.009Z,1.25
2022-10-05T19:30:07.438Z,2.25
2022-10-05T19:33:10.550Z,1.65
2022-10-05T19:36:12.401Z,3.35
2022-10-05T19:39:17.415Z,4.88
2022-10-05T19:45:19.801Z,4.75
2022-10-05T19:48:07.764Z,3.60
2022-10-05T19:51:00.656Z,2.10
2022-10-05T19:53:47.126Z,0.70
2022-10-05T19:56:48.806Z,2.38
2022-10-05T19:59:26.937Z,3.13
2022-10-05T20:02:07.394Z,1.05
2022-10-05T20:04:49.696Z,1.55
2022-10-05T20:10:34.336Z,2.50
2022-10-05T20:13:36.846Z,5.47
2022-10-05T20:16:52.373Z,1.05
2022-10-05T20:19:58.323Z,3.20
2022-10-05T20:22:54.378Z,1.63
2022-10-05T20:25:51.873Z,3.50
2022-10-05T20:28:52.302Z,3.58
2022-10-05T20:31:28.904Z,4.45
2022-10-05T20:34:19.946Z,4.30
2022-10-05T20:37:02.940Z,3.15
2022-10-05T20:39:47.780Z,8.48
2022-10-05T20:42:24.649Z,2.35
2022-10-05T20:45:28.357Z,3.53
2022-10-05T20:48:05.874Z,2.50
2022-10-05T20:50:52.223Z,4.18
2022-10-05T20:53:35.375Z,3.65
2022-10-05T20:56:26.550Z,6.28
2022-10-05T20:59:07.802Z,1.52
2022-10-05T21:01:51.655Z,2.58
2022-10-05T21:04:41.294Z,1.08
2022-10-05T21:07:31.343Z,3.15
2022-10-05T21:10:13.754Z,2.47
2022-10-05T21:12:56.316Z,2.40
2022-10-05T21:15:35.699Z,9.05
2022-10-05T21:18:23.530Z,4.60
2022-10-05T21:21:02.179Z,2.08
2022-10-05T21:26:31.917Z,3.38
2022-10-05T21:29:12.481Z,2.97
2022-10-05T21:37:58.156Z,4.55
2022-10-05T21:41:01.941Z,5.07
2022-10-05T21:43:43.173Z,11.40
2022-10-05T21:46:21.754Z,15.10
2022-10-05T21:49:03.578Z,9.30
2022-10-05T21:51:57.401Z,4.93
2022-10-05T21:54:33.940Z,16.52
2022-10-05T22:00:08.510Z,15.43
2022-10-05T22:03:07.665Z,1.42
2022-10-05T22:05:52.697Z,0.70
2022-10-05T22:08:33.197Z,2.67
2022-10-05T22:14:08.077Z,5.45
2022-10-05T22:16:51.436Z,1.80
2022-10-05T22:28:46.937Z,1.38
2022-10-05T22:31:32.455Z,1.27
2022-10-05T22:34:10.144Z,4.95
2022-10-05T22:36:53.724Z,2.80
2022-10-05T22:39:33.079Z,2.38
2022-10-05T22:42:47.410Z,0.95
2022-10-05T22:45:29.177Z,0.95
2022-10-05T22:48:21.995Z,1.70
2022-10-05T22:51:10.779Z,0.77
2022-10-05T22:54:19.884Z,0.88
2022-10-05T22:57:06.302Z,0.95
2022-10-05T22:59:51.643Z,0.98
2022-10-05T23:02:53.754Z,1.40
2022-10-05T23:05:32.209Z,0.95
2022-10-05T23:13:51.791Z,4.63
2022-10-05T23:16:38.170Z,1.80
2022-10-05T23:19:28.687Z,1.30
2022-10-05T23:25:22.051Z,5.50
2022-10-05T23:28:24.170Z,4.35
2022-10-05T23:31:11.562Z,6.85
2022-10-05T23:33:57.450Z,0.82
2022-10-05T23:36:51.829Z,2.83
2022-10-05T23:39:36.165Z,1.15
2022-10-05T23:42:19.657Z,3.30
2022-10-05T23:45:13.902Z,2.22
2022-10-05T23:47:52.282Z,4.78
2022-10-05T23:53:27.151Z,1.77
